Navios Pollux — 3FPO2 — position and weather

sailwx.info

Track history (hours):
 
Tides and Currents Weather Stations Pressure Air Temp Water Temp Dewpoint Dewpoint Depression Visibility Wind Speed Wind Dir Waves Ship Positions

Navios Pollux

Last reported at 2015-Mar-02 10:33 UTC. Time now 2015-Mar-03 07:23 UTC.
Position N 02°06' E 102°05'.

Length 292 m; draft 11.9 m.

Type: Cargo ship. MMSI: 370290000.

Date/timePositionNaut miles runAvg speedWind from/ knotsBaromVisibWave heightAir tempDewpointWater temp
2015-Mar-02 10:33N 02°06' E 102°05'20 9.7
2015-Mar-02 08:26N 01°54' E 102°21'1111.0
2015-Mar-02 07:24N 01°49' E 102°32'1011.6
2015-Mar-02 06:31N 01°44' E 102°41'6911.1
2015-Mar-02 00:20N 01°11' E 103°40'8 9.6
2015-Mar-01 23:31N 01°11' E 103°48'1212.1
2015-Mar-01 22:33N 01°15' E 103°59'6 5.4
2015-Mar-01 21:23N 01°18' E 104°05'0 0.0
2015-Mar-01 20:11N 01°18' E 104°05'0 0.0
2015-Mar-01 18:29N 01°18' E 104°05'0 0.0
2015-Mar-01 17:29N 01°18' E 104°05'0 0.0
2015-Mar-01 16:05N 01°18' E 104°05'0 0.0
2015-Mar-01 15:17N 01°18' E 104°05'0 0.0
2015-Mar-01 13:11N 01°18' E 104°05'0 0.0
2015-Mar-01 12:29N 01°18' E 104°05'0 0.0
2015-Mar-01 11:11N 01°18' E 104°05'0 0.1
2015-Mar-01 10:29N 01°18' E 104°05'3 2.8
2015-Mar-01 09:33N 01°17' E 104°07'7 6.9
2015-Mar-01 08:31N 01°18' E 104°14'  
Track history (hours):
 
Tides and Currents Weather Stations Pressure Air Temp Water Temp Dewpoint Dewpoint Depression Visibility Wind Speed Wind Dir Waves Ship Positions

Navios Pollux

Last reported at 2015-Mar-02 10:33 UTC. Time now 2015-Mar-03 07:23 UTC.
Position N 02°06' E 102°05'.

Length 292 m; draft 11.9 m.

Type: Cargo ship. MMSI: 370290000.

Date/timePositionNaut miles runAvg speedWind from/ knotsBaromVisibWave heightAir tempDewpointWater temp
2015-Mar-02 10:33N 02°06' E 102°05'20 9.7
2015-Mar-02 08:26N 01°54' E 102°21'1111.0
2015-Mar-02 07:24N 01°49' E 102°32'1011.6
2015-Mar-02 06:31N 01°44' E 102°41'6911.1
2015-Mar-02 00:20N 01°11' E 103°40'8 9.6
2015-Mar-01 23:31N 01°11' E 103°48'1212.1
2015-Mar-01 22:33N 01°15' E 103°59'6 5.4
2015-Mar-01 21:23N 01°18' E 104°05'0 0.0
2015-Mar-01 20:11N 01°18' E 104°05'0 0.0
2015-Mar-01 18:29N 01°18' E 104°05'0 0.0
2015-Mar-01 17:29N 01°18' E 104°05'0 0.0
2015-Mar-01 16:05N 01°18' E 104°05'0 0.0
2015-Mar-01 15:17N 01°18' E 104°05'0 0.0
2015-Mar-01 13:11N 01°18' E 104°05'0 0.0
2015-Mar-01 12:29N 01°18' E 104°05'0 0.0
2015-Mar-01 11:11N 01°18' E 104°05'0 0.1
2015-Mar-01 10:29N 01°18' E 104°05'3 2.8
2015-Mar-01 09:33N 01°17' E 104°07'7 6.9
2015-Mar-01 08:31N 01°18' E 104°14'  

Dump ship's entire track history